Abeytas, New Mexico
Current Conditions -  °F | °C
As of 5:35 PM on Sunday 21 Dec 2014 (Local Time) from KE80 Reporting Station
Clear Clear  
Wind Chill: 40°   Ceiling: Unl
Heat Index: 43°   Visibility: 10mi
Dew Point: 28°   Wind: 6mph
Humidity: 55%   Direction: 100°E
Pressure: 29.94"   Gusts: NA
Location:  34.4828°N, 106.804°W
Report Text: KE80 220035Z AUTO 10005KT 10SM CLR 06/M02 A2994 RMK AO2 T00631021
Loading
Personal Weather Stations






























Interactive Weather Map New forecast layout! Learn more

10-Day Weather Forecast

Advertisements
Track Severe Weather on mobile